Time;durP1;ratioP1;P1;durP2;ratioP2;P2;SDS_P1;SDS_P2;PMS_P1;PMS_P2;Temp;Humidity;BMP_temperature;BMP_pressure;BME280_temperature;BME280_humidity;BME280_pressure;Samples;Min_cycle;Max_cycle;Signal;HPM_P1;HPM_P2
2022/12/14 00:01:21;;;;;;;33.67;19.67;;;-2.80;77.00;;;;;;5017990;28;20033;-86
2022/12/14 00:03:47;;;;;;;38.17;19.23;;;-2.70;76.80;;;;;;5017881;28;20052;-86
2022/12/14 00:06:22;;;;;;;34.83;19.52;;;-2.80;76.40;;;;;;5017832;28;20033;-87
2022/12/14 00:08:49;;;;;;;40.83;19.30;;;-2.70;76.60;;;;;;5018253;28;20053;-86
2022/12/14 00:11:16;;;;;;;39.13;19.75;;;-2.70;77.40;;;;;;5017762;28;20052;-86
2022/12/14 00:13:42;;;;;;;37.60;18.27;;;-2.70;77.10;;;;;;5018605;28;20033;-86
2022/12/14 00:16:14;;;;;;;38.50;19.83;;;-2.70;76.30;;;;;;5017635;28;20413;-86
2022/12/14 00:18:41;;;;;;;39.28;19.85;;;-2.70;76.30;;;;;;5017887;28;20029;-86
2022/12/14 00:21:11;;;;;;;37.42;18.80;;;-2.70;76.90;;;;;;5036019;28;20113;-87
2022/12/14 00:23:39;;;;;;;37.20;19.58;;;-2.70;76.80;;;;;;5001495;28;20070;-85
2022/12/14 00:26:23;;;;;;;40.25;20.77;;;-2.70;77.10;;;;;;5002043;28;20132;-86
2022/12/14 00:28:54;;;;;;;38.90;21.42;;;-2.60;77.20;;;;;;5037600;28;20083;-85
2022/12/14 00:31:24;;;;;;;39.03;21.35;;;-2.70;77.80;;;;;;5002695;28;20544;-86
2022/12/14 00:34:25;;;;;;;36.70;19.75;;;-2.70;78.50;;;;;;5029943;28;20536;-88
2022/12/14 00:36:54;;;;;;;35.42;19.13;;;-2.70;79.00;;;;;;5017208;28;20037;-87
2022/12/14 00:39:40;;;;;;;41.20;20.60;;;-2.70;79.60;;;;;;4985526;28;20072;-86
2022/12/14 00:42:39;;;;;;;38.47;21.00;;;-2.60;79.90;;;;;;5035191;28;20057;-87
2022/12/14 00:45:08;;;;;;;39.08;21.42;;;-2.70;80.30;;;;;;5028083;28;20068;-87
2022/12/14 00:47:34;;;;;;;37.88;20.50;;;-2.70;81.00;;;;;;5019776;28;20025;-87
2022/12/14 00:50:00;;;;;;;34.95;19.83;;;-2.60;81.10;;;;;;5017161;28;20017;-87
2022/12/14 00:52:25;;;;;;;44.53;20.83;;;-2.60;81.00;;;;;;5017642;28;20017;-87
2022/12/14 00:54:51;;;;;;;38.17;19.70;;;-2.60;80.90;;;;;;5017545;28;20017;-87
2022/12/14 00:57:16;;;;;;;37.83;19.48;;;-2.60;81.00;;;;;;5017247;28;20021;-87
2022/12/14 00:59:42;;;;;;;35.22;19.27;;;-2.60;80.80;;;;;;5018068;28;20029;-84
2022/12/14 01:02:07;;;;;;;35.97;19.13;;;-2.50;81.20;;;;;;5018249;28;20644;-87
2022/12/14 01:04:33;;;;;;;34.63;18.27;;;-2.50;81.20;;;;;;5035071;28;20025;-86
2022/12/14 01:07:04;;;;;;;35.72;18.50;;;-2.50;81.60;;;;;;5021787;28;20033;-88
2022/12/14 01:09:29;;;;;;;38.03;20.10;;;-2.40;81.60;;;;;;5022604;28;20026;-87
2022/12/14 01:11:55;;;;;;;36.88;19.88;;;-2.40;81.40;;;;;;5010274;28;20492;-86
2022/12/14 01:14:21;;;;;;;37.30;19.77;;;-2.40;81.50;;;;;;4999074;28;20046;-88
2022/12/14 01:16:47;;;;;;;44.75;21.17;;;-2.30;81.70;;;;;;5014862;28;20033;-88
2022/12/14 01:19:14;;;;;;;43.80;23.00;;;-2.40;81.80;;;;;;5015130;28;20038;-87
2022/12/14 01:21:39;;;;;;;42.65;22.70;;;-2.40;82.10;;;;;;5004363;28;20030;-88
2022/12/14 01:24:05;;;;;;;55.15;26.73;;;-2.40;82.70;;;;;;5010248;28;20052;-86
2022/12/14 01:26:35;;;;;;;51.50;23.75;;;-2.40;84.10;;;;;;5012345;28;20069;-87
2022/12/14 01:29:01;;;;;;;52.88;26.00;;;-2.50;83.70;;;;;;5007070;28;20014;-87
2022/12/14 01:31:32;;;;;;;49.95;24.10;;;-2.50;83.80;;;;;;4997497;28;20041;-87
2022/12/14 01:33:58;;;;;;;44.35;23.02;;;-2.50;83.90;;;;;;4997752;28;20032;-86
2022/12/14 01:36:26;;;;;;;45.13;22.75;;;-2.50;84.10;;;;;;5014805;28;20026;-87
2022/12/14 01:38:54;;;;;;;39.17;20.95;;;-2.50;83.80;;;;;;4997157;28;20072;-88
2022/12/14 01:41:30;;;;;;;36.70;19.90;;;-2.40;83.40;;;;;;4997097;28;20058;-87
2022/12/14 01:44:23;;;;;;;35.72;19.67;;;-2.40;82.90;;;;;;4996559;28;20025;-87
2022/12/14 01:47:00;;;;;;;32.83;18.73;;;-2.30;82.60;;;;;;4996963;28;20121;-86
2022/12/14 01:49:43;;;;;;;31.75;18.02;;;-2.20;82.00;;;;;;4997232;28;20397;-87
2022/12/14 01:52:27;;;;;;;33.25;17.98;;;-2.20;81.50;;;;;;5014298;28;20026;-84
2022/12/14 01:55:32;;;;;;;32.58;19.35;;;-2.10;81.50;;;;;;5014532;28;20495;-86
2022/12/14 01:58:13;;;;;;;32.15;17.95;;;-2.10;81.60;;;;;;4996875;28;20059;-87
2022/12/14 02:00:39;;;;;;;33.58;19.20;;;-2.10;81.50;;;;;;4997010;28;20037;-87
2022/12/14 02:03:19;;;;;;;32.35;17.60;;;-2.00;81.30;;;;;;4997300;28;20061;-87
2022/12/14 02:05:51;;;;;;;33.30;18.55;;;-2.00;81.30;;;;;;4997375;28;20391;-86
2022/12/14 02:08:19;;;;;;;32.20;18.65;;;-2.00;81.00;;;;;;4996823;28;20049;-86
2022/12/14 02:10:47;;;;;;;31.85;17.88;;;-1.90;81.10;;;;;;4996768;28;20034;-86
2022/12/14 02:13:21;;;;;;;32.55;17.50;;;-1.90;80.90;;;;;;5014063;28;20414;-87
2022/12/14 02:15:49;;;;;;;30.00;17.95;;;-1.90;81.20;;;;;;4996614;28;20033;-87
2022/12/14 02:18:21;;;;;;;33.17;18.60;;;-2.00;81.20;;;;;;5000112;28;20034;-87
2022/12/14 02:21:13;;;;;;;34.42;18.33;;;-1.90;81.60;;;;;;5000273;28;20390;-88
2022/12/14 02:24:04;;;;;;;37.08;18.02;;;-1.90;81.70;;;;;;5000750;28;20034;-86
2022/12/14 02:26:54;;;;;;;34.40;17.63;;;-1.90;81.80;;;;;;5016294;28;20045;-87
2022/12/14 02:29:31;;;;;;;29.88;16.98;;;-1.90;82.00;;;;;;5017072;28;20041;-87
2022/12/14 02:32:08;;;;;;;34.63;18.33;;;-1.80;82.10;;;;;;5000477;28;20022;-88
2022/12/14 02:34:58;;;;;;;28.90;15.98;;;-1.80;81.90;;;;;;5000187;28;20018;-87
2022/12/14 02:37:45;;;;;;;28.95;16.27;;;-1.70;82.10;;;;;;5016539;28;20026;-87
2022/12/14 02:40:24;;;;;;;28.95;16.30;;;-1.70;82.60;;;;;;5001339;28;20022;-87
2022/12/14 02:43:27;;;;;;;30.02;17.20;;;-1.70;82.20;;;;;;5010056;28;20386;-87
2022/12/14 02:46:21;;;;;;;33.42;18.52;;;-1.70;82.30;;;;;;5025454;28;20113;-85
2022/12/14 02:49:02;;;;;;;34.25;18.75;;;-1.60;82.50;;;;;;5009992;28;20026;-86
2022/12/14 02:51:39;;;;;;;36.92;20.13;;;-1.70;82.60;;;;;;5001904;28;20476;-87
2022/12/14 02:54:28;;;;;;;35.45;19.90;;;-1.70;82.90;;;;;;5000309;28;20026;-86
2022/12/14 02:57:07;;;;;;;35.03;19.92;;;-1.70;82.70;;;;;;5016096;28;20022;-86
2022/12/14 02:59:33;;;;;;;34.58;20.10;;;-1.70;82.90;;;;;;5017199;28;20057;-86
2022/12/14 03:02:01;;;;;;;40.63;20.88;;;-1.70;83.50;;;;;;4999449;28;20026;-86
2022/12/14 03:04:27;;;;;;;38.20;20.98;;;-1.80;83.20;;;;;;4999400;28;20058;-86
2022/12/14 03:07:01;;;;;;;42.65;21.42;;;-1.70;83.20;;;;;;4999233;28;20518;-85
2022/12/14 03:09:29;;;;;;;38.20;21.00;;;-1.70;83.40;;;;;;4999105;28;20109;-86
2022/12/14 03:12:03;;;;;;;36.55;20.52;;;-1.70;83.30;;;;;;4999348;28;20150;-86
2022/12/14 03:14:39;;;;;;;40.60;19.40;;;-1.70;83.20;;;;;;4999214;28;20080;-87
2022/12/14 03:17:28;;;;;;;37.55;20.15;;;-1.60;83.10;;;;;;4999577;28;20276;-86
2022/12/14 03:20:04;;;;;;;35.10;19.60;;;-1.50;83.10;;;;;;4998779;28;20046;-84
2022/12/14 03:22:38;;;;;;;38.35;20.20;;;-1.50;82.70;;;;;;4998549;28;20359;-85
2022/12/14 03:25:24;;;;;;;38.53;20.77;;;-1.40;82.70;;;;;;4999168;28;20364;-86
2022/12/14 03:27:55;;;;;;;37.33;20.42;;;-1.40;82.50;;;;;;4997956;28;20116;-85
2022/12/14 03:30:21;;;;;;;34.38;19.60;;;-1.40;82.60;;;;;;4999109;28;20028;-85
2022/12/14 03:32:56;;;;;;;35.20;19.35;;;-1.40;82.70;;;;;;4998487;28;20026;-85
2022/12/14 03:35:31;;;;;;;41.05;21.40;;;-1.30;82.90;;;;;;4999692;28;20104;-85
2022/12/14 03:38:06;;;;;;;;;;;-1.20;82.90;;;;;;4999038;28;20026;-85
2022/12/14 03:40:38;;;;;;;35.90;19.75;;;-1.20;82.80;;;;;;4998774;28;20362;-85
2022/12/14 03:43:21;;;;;;;38.78;20.40;;;-1.20;82.60;;;;;;5002164;28;20542;-85
2022/12/14 03:46:14;;;;;;;34.60;19.83;;;-1.10;82.80;;;;;;4999084;28;20026;-86
2022/12/14 03:48:49;;;;;;;39.65;22.33;;;-1.20;82.40;;;;;;4998981;28;20022;-86
2022/12/14 03:51:31;;;;;;;41.63;21.90;;;-1.20;82.30;;;;;;4998894;28;20030;-86
2022/12/14 03:54:26;;;;;;;39.50;21.95;;;-1.20;82.60;;;;;;4998693;28;20634;-85
2022/12/14 03:57:16;;;;;;;40.20;21.95;;;-1.10;82.50;;;;;;4998989;28;20381;-87
2022/12/14 04:00:07;;;;;;;38.50;21.52;;;-1.20;82.50;;;;;;4999093;28;20037;-85
2022/12/14 04:03:08;;;;;;;40.30;22.17;;;-1.10;82.50;;;;;;4993941;28;20026;-86
2022/12/14 04:05:41;;;;;;;41.03;23.15;;;-1.10;82.40;;;;;;4995360;28;20057;-85
2022/12/14 04:08:19;;;;;;;45.80;25.13;;;-1.10;82.50;;;;;;4998033;28;20030;-85
2022/12/14 04:19:50;;;;;;;44.65;24.30;;;-1.20;82.50;;;;;;5015440;28;20033;-84
2022/12/14 04:22:20;;;;;;;43.95;24.98;;;-1.20;82.50;;;;;;4992172;28;20176;-85
2022/12/14 04:27:48;;;;;;;45.17;24.40;;;-1.20;82.70;;;;;;5015649;28;20048;-84
2022/12/14 04:30:15;;;;;;;47.05;24.77;;;-1.20;82.90;;;;;;4998195;28;20053;-87
2022/12/14 04:33:45;;;;;;;49.38;25.33;;;-1.20;83.10;;;;;;4998340;28;20112;-86
2022/12/14 04:35:49;;;;;;;46.47;26.67;;;-1.20;83.00;;;;;;5018665;28;20105;-88
2022/12/14 04:38:19;;;;;;;44.10;24.55;;;-1.20;83.10;;;;;;5002439;28;20030;-87
2022/12/14 04:40:50;;;;;;;43.50;25.80;;;-1.20;83.50;;;;;;5001552;28;20341;-86
2022/12/14 04:43:19;;;;;;;49.28;26.02;;;-1.20;83.90;;;;;;5000916;28;20018;-87
2022/12/14 04:46:09;;;;;;;49.95;25.77;;;-1.20;83.90;;;;;;4999681;28;20026;-86
2022/12/14 04:48:49;;;;;;;46.08;25.08;;;-1.10;84.00;;;;;;4999744;28;20095;-86
2022/12/14 04:51:34;;;;;;;48.88;26.02;;;-1.00;84.30;;;;;;4999799;28;20022;-85
2022/12/14 04:54:17;;;;;;;40.10;19.23;;;-1.00;84.20;;;;;;4999152;28;20482;-85
2022/12/14 04:56:55;;;;;;;44.13;23.58;;;-1.00;84.10;;;;;;4998876;28;20030;-86
2022/12/14 04:59:22;;;;;;;46.78;25.13;;;-0.90;84.50;;;;;;4997520;28;20029;-87
2022/12/14 05:02:15;;;;;;;47.05;24.02;;;-0.80;84.30;;;;;;4987436;28;20030;-85
2022/12/14 05:04:56;;;;;;;47.83;26.17;;;-0.80;84.20;;;;;;4977510;28;20026;-86
2022/12/14 05:07:42;;;;;;;58.88;27.00;;;-0.80;84.30;;;;;;4976822;28;20380;-76
2022/12/14 05:10:19;;;;;;;51.42;27.08;;;-0.50;89.40;;;;;;4993807;28;20019;-78
2022/12/14 05:13:22;;;;;;;45.28;25.05;;;0.00;89.50;;;;;;4976619;28;20080;-74
2022/12/14 05:15:51;;;;;;;42.45;24.25;;;0.40;88.10;;;;;;4990888;28;20113;-77
2022/12/14 05:18:17;;;;;;;38.55;21.38;;;0.70;84.10;;;;;;4994145;28;20026;-79
2022/12/14 05:20:44;;;;;;;40.65;21.90;;;0.90;81.40;;;;;;4994049;28;20050;-74
2022/12/14 05:23:10;;;;;;;43.42;22.95;;;1.00;79.80;;;;;;4993821;28;20026;-74
2022/12/14 05:25:35;;;;;;;40.70;21.98;;;1.10;79.20;;;;;;4993749;28;20035;-82
2022/12/14 05:28:01;;;;;;;36.53;21.75;;;1.10;78.30;;;;;;4994070;28;20097;-83
2022/12/14 05:30:26;;;;;;;39.35;21.55;;;0.90;79.00;;;;;;4976719;28;20026;-83
2022/12/14 05:32:52;;;;;;;43.33;23.27;;;0.70;78.80;;;;;;4976513;28;20022;-82
2022/12/14 05:35:18;;;;;;;38.83;22.08;;;0.60;79.80;;;;;;5000352;28;20025;-83
2022/12/14 05:37:44;;;;;;;39.08;21.58;;;0.30;81.00;;;;;;4982044;28;20374;-85
2022/12/14 05:40:10;;;;;;;43.75;22.65;;;0.10;82.20;;;;;;4977344;28;20030;-85
2022/12/14 05:42:36;;;;;;;39.65;22.70;;;0.00;82.80;;;;;;4977661;28;20112;-85
2022/12/14 05:45:01;;;;;;;42.15;22.88;;;0.00;83.40;;;;;;4995065;28;20455;-85
2022/12/14 05:47:27;;;;;;;43.65;23.80;;;0.00;84.30;;;;;;4977846;28;20036;-85
2022/12/14 05:49:52;;;;;;;42.42;22.75;;;-0.10;85.00;;;;;;4977760;28;20018;-85
2022/12/14 05:52:19;;;;;;;43.67;23.10;;;-0.10;85.10;;;;;;4979412;28;20430;-85
2022/12/14 05:54:44;;;;;;;41.47;22.83;;;0.00;85.50;;;;;;4981260;28;20467;-85
2022/12/14 05:57:10;;;;;;;44.67;24.08;;;0.00;85.90;;;;;;4981377;28;20041;-85
2022/12/14 05:59:36;;;;;;;46.55;24.05;;;0.00;85.90;;;;;;4981257;28;20026;-84
2022/12/14 06:02:01;;;;;;;43.03;23.70;;;0.00;85.80;;;;;;4981427;28;20026;-85
2022/12/14 06:04:27;;;;;;;44.60;24.60;;;0.00;85.70;;;;;;5001729;28;20022;-84
2022/12/14 06:06:52;;;;;;;48.00;24.33;;;0.00;85.80;;;;;;5013837;28;20045;-83
2022/12/14 06:09:18;;;;;;;44.92;24.40;;;0.10;85.80;;;;;;5002730;28;20014;-84
2022/12/14 06:11:45;;;;;;;44.60;23.17;;;0.00;85.70;;;;;;5021316;28;20014;-85
2022/12/14 06:14:12;;;;;;;43.42;22.90;;;0.10;86.00;;;;;;4982573;28;20023;-85
2022/12/14 06:16:42;;;;;;;45.97;24.05;;;0.20;86.00;;;;;;4982908;28;20034;-84
2022/12/14 06:19:09;;;;;;;45.72;23.65;;;0.20;86.20;;;;;;4981908;28;20126;-84
2022/12/14 06:21:37;;;;;;;48.03;24.88;;;0.20;86.20;;;;;;4980839;28;20062;-86
2022/12/14 06:24:03;;;;;;;52.47;25.90;;;0.30;86.60;;;;;;4980015;28;20030;-85
2022/12/14 06:26:30;;;;;;;47.63;25.42;;;0.20;86.90;;;;;;4980500;28;20030;-83
2022/12/14 06:28:57;;;;;;;47.53;26.23;;;0.20;87.30;;;;;;4980277;28;20371;-83
2022/12/14 06:31:25;;;;;;;52.88;26.00;;;0.30;87.50;;;;;;4979926;28;20065;-86
2022/12/14 06:33:52;;;;;;;50.67;25.00;;;0.30;87.60;;;;;;4997970;28;20033;-84
2022/12/14 06:36:22;;;;;;;49.03;24.88;;;0.30;87.60;;;;;;4980060;28;20031;-84
2022/12/14 06:38:51;;;;;;;55.45;27.40;;;0.40;87.60;;;;;;4980591;28;20089;-83
2022/12/14 06:41:18;;;;;;;48.13;25.77;;;0.40;87.60;;;;;;4997985;28;20631;-83
2022/12/14 06:43:43;;;;;;;50.13;26.55;;;0.40;87.90;;;;;;4980286;28;20503;-84
2022/12/14 06:46:12;;;;;;;51.05;26.42;;;0.40;88.10;;;;;;4997175;28;20113;-84
2022/12/14 06:48:37;;;;;;;49.22;25.35;;;0.40;88.20;;;;;;4978937;28;20399;-83
2022/12/14 06:51:05;;;;;;;50.25;24.42;;;0.40;88.30;;;;;;4978690;28;20089;-84
2022/12/14 06:53:31;;;;;;;47.70;24.02;;;0.50;88.90;;;;;;4979107;28;20027;-83
2022/12/14 06:56:11;;;;;;;48.35;25.70;;;0.50;88.80;;;;;;4978888;28;20022;-84
2022/12/14 06:58:37;;;;;;;55.90;26.10;;;0.50;88.60;;;;;;4994611;28;20023;-83
2022/12/14 07:01:06;;;;;;;52.40;26.17;;;0.50;88.50;;;;;;4978962;28;20034;-84
2022/12/14 07:03:31;;;;;;;47.38;25.05;;;0.60;88.40;;;;;;4978475;28;20026;-84
2022/12/14 07:05:58;;;;;;;50.08;25.23;;;0.60;88.40;;;;;;4996111;28;20030;-83
2022/12/14 07:08:25;;;;;;;52.03;26.40;;;0.60;88.30;;;;;;5014093;28;20061;-83
2022/12/14 07:10:51;;;;;;;48.42;26.30;;;0.50;88.40;;;;;;4981908;28;20061;-83
2022/12/14 07:13:17;;;;;;;56.28;28.02;;;0.60;88.40;;;;;;4978736;28;20402;-84
2022/12/14 07:15:43;;;;;;;52.55;26.50;;;0.60;88.50;;;;;;4978882;28;20047;-84
2022/12/14 07:18:09;;;;;;;51.85;25.98;;;0.60;88.70;;;;;;4978674;28;20027;-84
2022/12/14 07:20:35;;;;;;;53.88;27.33;;;0.60;89.10;;;;;;4978473;28;20057;-84
2022/12/14 07:23:00;;;;;;;55.33;28.67;;;0.60;89.30;;;;;;4978855;28;20499;-84
2022/12/14 07:25:26;;;;;;;51.80;26.00;;;0.60;89.60;;;;;;4978435;28;20081;-83
2022/12/14 07:27:51;;;;;;;51.72;25.52;;;0.70;89.70;;;;;;4978634;28;20064;-84
2022/12/14 07:30:17;;;;;;;52.03;26.13;;;0.70;89.70;;;;;;4978553;28;20022;-83
2022/12/14 07:32:42;;;;;;;47.63;23.90;;;0.70;89.80;;;;;;4978344;28;20038;-84
2022/12/14 07:35:08;;;;;;;52.55;27.45;;;0.80;89.80;;;;;;4995427;28;20026;-84
2022/12/14 07:37:34;;;;;;;68.20;34.10;;;0.80;89.80;;;;;;4978121;28;20117;-84
2022/12/14 07:39:59;;;;;;;60.45;32.05;;;0.70;88.30;;;;;;4995568;28;20034;-85
2022/12/14 07:42:25;;;;;;;67.28;32.90;;;0.60;88.10;;;;;;4978316;28;20026;-84
2022/12/14 07:44:50;;;;;;;67.85;33.70;;;0.50;87.90;;;;;;4977984;28;20026;-85
2022/12/14 07:47:16;;;;;;;62.15;33.45;;;0.40;88.20;;;;;;4995640;28;20034;-83
2022/12/14 07:49:41;;;;;;;66.18;31.77;;;0.40;88.50;;;;;;4995455;28;20027;-84
2022/12/14 07:52:07;;;;;;;63.47;33.45;;;0.40;88.40;;;;;;4978061;28;20419;-83
2022/12/14 07:54:33;;;;;;;63.50;32.03;;;0.30;88.20;;;;;;4977712;28;20110;-83
2022/12/14 07:56:58;;;;;;;67.15;32.92;;;0.30;88.20;;;;;;4977905;28;20054;-82
2022/12/14 07:59:24;;;;;;;65.63;30.42;;;0.30;88.30;;;;;;4995447;28;20027;-83
2022/12/14 08:01:51;;;;;;;62.63;33.13;;;0.30;88.40;;;;;;4977489;28;20081;-84
2022/12/14 08:04:18;;;;;;;65.55;31.00;;;0.40;88.50;;;;;;4977746;28;20022;-82
2022/12/14 08:06:46;;;;;;;61.13;31.40;;;0.40;88.50;;;;;;4977442;28;20114;-84
2022/12/14 08:09:12;;;;;;;68.53;33.70;;;0.40;88.50;;;;;;4995336;28;20026;-82
2022/12/14 08:11:39;;;;;;;88.53;40.00;;;0.50;88.60;;;;;;4977604;28;20022;-82
2022/12/14 08:14:13;;;;;;;73.32;36.75;;;0.40;88.60;;;;;;4977038;28;20057;-83
2022/12/14 08:16:39;;;;;;;68.50;34.67;;;0.40;88.70;;;;;;4995045;28;20045;-83
2022/12/14 08:19:04;;;;;;;76.55;36.53;;;0.50;88.70;;;;;;4994313;28;20066;-84
2022/12/14 08:21:30;;;;;;;78.18;35.65;;;0.50;88.50;;;;;;4994694;28;20042;-83
2022/12/14 08:23:56;;;;;;;72.68;34.08;;;0.50;88.60;;;;;;4977180;28;20049;-83
2022/12/14 08:26:23;;;;;;;65.75;33.22;;;0.50;88.80;;;;;;4977193;28;20038;-85
2022/12/14 08:28:49;;;;;;;66.55;33.00;;;0.50;88.90;;;;;;4977342;28;20068;-82
2022/12/14 08:31:19;;;;;;;67.68;33.33;;;0.50;89.30;;;;;;4977639;28;20031;-83
2022/12/14 08:33:46;;;;;;;64.97;33.70;;;0.50;89.50;;;;;;4977326;28;20025;-84
2022/12/14 08:36:15;;;;;;;74.75;37.47;;;0.60;89.30;;;;;;4994690;28;20033;-85
2022/12/14 08:38:41;;;;;;;65.68;33.42;;;0.60;89.30;;;;;;4976920;28;20138;-83
2022/12/14 08:41:11;;;;;;;71.10;34.70;;;0.70;89.40;;;;;;4977049;28;20022;-85
2022/12/14 08:43:37;;;;;;;71.88;36.25;;;0.70;89.40;;;;;;4977459;28;20027;-85
2022/12/14 08:46:03;;;;;;;64.65;33.83;;;0.60;89.40;;;;;;4977097;28;20117;-85
2022/12/14 08:48:29;;;;;;;71.90;37.22;;;0.70;89.40;;;;;;4977501;28;20133;-85
2022/12/14 08:51:02;;;;;;;62.72;33.55;;;0.70;89.60;;;;;;4995161;28;20483;-86
2022/12/14 08:53:28;;;;;;;68.97;35.30;;;0.70;89.90;;;;;;4977539;28;20029;-85
2022/12/14 08:55:53;;;;;;;63.80;32.78;;;0.70;89.90;;;;;;4994492;28;20030;-85
2022/12/14 08:58:19;;;;;;;75.45;39.10;;;0.80;89.70;;;;;;4994668;28;20049;-86
2022/12/14 09:00:44;;;;;;;62.45;33.28;;;0.80;89.70;;;;;;4977832;28;20029;-86
2022/12/14 09:03:10;;;;;;;63.03;31.90;;;0.90;90.00;;;;;;4996894;28;20034;-84
2022/12/14 09:05:37;;;;;;;58.67;32.13;;;0.90;90.40;;;;;;4979554;28;20386;-81
2022/12/14 09:08:03;;;;;;;60.30;30.98;;;1.00;90.40;;;;;;4998942;28;20027;-85
2022/12/14 09:10:29;;;;;;;59.78;29.83;;;1.10;90.40;;;;;;4980596;28;20032;-83
2022/12/14 09:12:54;;;;;;;53.00;28.63;;;1.20;90.50;;;;;;4977535;28;20113;-88
2022/12/14 09:15:20;;;;;;;51.28;27.52;;;1.20;90.30;;;;;;4995106;28;20096;-84
2022/12/14 09:17:48;;;;;;;56.65;29.33;;;1.20;90.10;;;;;;4976259;28;20471;-84
2022/12/14 09:20:14;;;;;;;55.63;28.85;;;1.20;90.30;;;;;;4976321;28;20082;-84
2022/12/14 09:22:39;;;;;;;47.78;26.17;;;1.30;90.50;;;;;;4976241;28;20057;-84
2022/12/14 09:25:05;;;;;;;49.50;27.63;;;1.30;90.40;;;;;;4976495;28;20541;-83
2022/12/14 09:27:32;;;;;;;47.22;25.85;;;1.40;90.80;;;;;;4993006;28;20034;-83
2022/12/14 09:29:58;;;;;;;47.75;26.52;;;1.50;89.80;;;;;;4976224;28;20431;-83
2022/12/14 09:32:23;;;;;;;45.15;25.60;;;1.50;89.40;;;;;;4993617;28;20026;-84
2022/12/14 09:34:49;;;;;;;44.88;25.85;;;1.50;89.10;;;;;;4993849;28;20097;-84
2022/12/14 09:37:14;;;;;;;42.33;24.00;;;1.60;89.00;;;;;;4993890;28;20144;-82
2022/12/14 09:39:40;;;;;;;44.63;25.23;;;1.60;88.70;;;;;;4993493;28;20026;-81
2022/12/14 09:42:19;;;;;;;40.70;23.40;;;1.60;88.30;;;;;;4993426;28;20151;-81
2022/12/14 09:44:53;;;;;;;40.80;24.92;;;1.70;88.30;;;;;;4975941;28;20117;-81
2022/12/14 09:47:35;;;;;;;43.97;25.67;;;1.70;88.10;;;;;;4993765;28;20037;-81
2022/12/14 09:50:04;;;;;;;41.50;24.05;;;1.70;88.20;;;;;;4993705;28;20105;-82
2022/12/14 09:52:41;;;;;;;43.58;24.65;;;1.70;88.40;;;;;;4994254;28;20077;-82
2022/12/14 09:55:35;;;;;;;48.55;26.00;;;1.80;88.20;;;;;;4976827;28;20030;-86
2022/12/14 09:58:06;;;;;;;43.15;25.13;;;1.90;88.20;;;;;;4976496;28;20022;-82
2022/12/14 10:00:39;;;;;;;44.83;24.02;;;1.90;88.90;;;;;;4993314;28;20053;-79
2022/12/14 10:03:23;;;;;;;44.03;24.58;;;1.80;89.10;;;;;;4976300;28;20077;-83
2022/12/14 10:05:57;;;;;;;50.53;27.55;;;1.80;88.60;;;;;;4975857;28;20085;-83
2022/12/14 10:08:42;;;;;;;55.42;28.17;;;1.80;89.80;;;;;;4975892;28;20054;-82
2022/12/14 10:11:19;;;;;;;61.05;33.75;;;1.80;90.30;;;;;;4975390;28;20041;-84
2022/12/14 10:14:13;;;;;;;65.40;33.50;;;1.80;90.50;;;;;;4975583;28;20030;-81
2022/12/14 10:16:42;;;;;;;62.13;32.25;;;1.80;90.70;;;;;;4993355;28;20471;-78
2022/12/14 10:19:33;;;;;;;57.78;32.00;;;1.80;90.80;;;;;;5000742;28;20051;-80
2022/12/14 10:22:13;;;;;;;57.53;31.90;;;1.80;90.80;;;;;;5014186;28;20037;-80
2022/12/14 10:25:04;;;;;;;58.35;30.50;;;1.80;90.70;;;;;;4996378;28;20026;-78
2022/12/14 10:27:33;;;;;;;56.90;30.30;;;1.90;90.70;;;;;;4987987;28;20053;-80
2022/12/14 10:30:00;;;;;;;47.20;27.17;;;2.00;90.60;;;;;;4996119;28;20028;-82
2022/12/14 10:32:35;;;;;;;50.13;28.50;;;2.00;90.60;;;;;;5013810;28;20397;-82
2022/12/14 10:35:15;;;;;;;55.10;30.42;;;2.10;90.40;;;;;;5013648;28;20050;-83
2022/12/14 10:37:46;;;;;;;51.33;29.42;;;2.20;90.20;;;;;;5014501;28;20061;-86
2022/12/14 10:40:32;;;;;;;52.45;29.45;;;2.20;90.00;;;;;;5016579;28;20021;-82
2022/12/14 10:43:16;;;;;;;;;;;2.30;90.00;;;;;;5019398;28;20033;-83
2022/12/14 10:45:49;;;;;;;63.40;34.83;;;2.30;89.70;;;;;;5019295;28;20425;-82
2022/12/14 10:48:28;;;;;;;62.25;34.25;;;2.30;89.70;;;;;;4999177;28;20026;-81
2022/12/14 10:51:18;;;;;;;65.40;36.67;;;2.30;89.70;;;;;;5016095;28;20111;-82
2022/12/14 10:53:52;;;;;;;56.85;32.75;;;2.30;90.50;;;;;;4996636;28;20041;-81
2022/12/14 10:56:24;;;;;;;57.05;31.77;;;2.20;89.70;;;;;;5013556;28;20364;-81
2022/12/14 10:59:15;;;;;;;57.20;31.92;;;2.20;89.70;;;;;;5015922;28;20034;-81
2022/12/14 11:01:41;;;;;;;47.30;27.88;;;2.20;89.70;;;;;;5014473;28;20153;-82
2022/12/14 11:04:32;;;;;;;51.35;29.52;;;2.30;90.00;;;;;;5015423;28;20113;-81
2022/12/14 11:07:06;;;;;;;56.38;32.25;;;2.40;90.00;;;;;;5015468;28;20034;-81
2022/12/14 11:09:32;;;;;;;53.88;30.92;;;2.40;89.80;;;;;;5015520;28;20018;-82
2022/12/14 11:12:14;;;;;;;46.80;27.52;;;2.40;89.70;;;;;;5014972;28;20381;-82
2022/12/14 11:14:54;;;;;;;47.30;27.42;;;2.40;89.50;;;;;;5013079;28;20030;-82
2022/12/14 11:17:31;;;;;;;45.95;28.02;;;2.50;89.40;;;;;;4994821;28;20030;-82
2022/12/14 11:20:07;;;;;;;56.15;32.38;;;2.50;89.40;;;;;;4982730;28;20039;-82
2022/12/14 11:22:48;;;;;;;51.35;28.58;;;2.60;89.10;;;;;;4984768;28;20030;-83
2022/12/14 11:25:40;;;;;;;59.78;32.97;;;2.70;89.10;;;;;;4974779;28;20027;-82
2022/12/14 11:28:15;;;;;;;50.70;30.40;;;2.70;88.90;;;;;;4993714;28;20102;-81
2022/12/14 11:31:01;;;;;;;50.53;29.67;;;2.80;88.80;;;;;;4976692;28;20023;-82
2022/12/14 11:33:45;;;;;;;54.67;32.15;;;2.80;88.60;;;;;;4976209;28;20054;-81
2022/12/14 11:36:33;;;;;;;46.15;27.52;;;2.80;88.10;;;;;;4975764;28;20022;-82
2022/12/14 11:39:19;;;;;;;58.50;33.45;;;2.80;88.30;;;;;;4993001;28;20018;-86
2022/12/14 11:41:46;;;;;;;;;;;2.90;88.90;;;;;;4994410;28;20023;-84
2022/12/14 11:44:15;;;;;;;53.03;30.25;;;2.80;87.80;;;;;;4977101;28;20004;-81
2022/12/14 11:46:43;;;;;;;65.20;34.72;;;2.90;88.00;;;;;;4976356;28;20045;-83
2022/12/14 11:49:23;;;;;;;61.45;33.53;;;2.80;87.90;;;;;;4975647;28;20027;-82
2022/12/14 11:51:54;;;;;;;56.38;31.02;;;2.80;87.80;;;;;;4994219;28;20142;-84
2022/12/14 11:54:20;;;;;;;51.50;30.45;;;2.80;87.80;;;;;;4994255;28;20022;-86
2022/12/14 11:56:49;;;;;;;52.28;31.15;;;2.90;88.10;;;;;;4976740;28;20161;-84
2022/12/14 11:59:16;;;;;;;52.63;31.88;;;2.90;88.40;;;;;;4994346;28;20022;-84
2022/12/14 12:01:42;;;;;;;53.30;30.60;;;2.90;88.40;;;;;;4994798;28;20030;-85
2022/12/14 12:04:13;;;;;;;57.78;33.58;;;3.00;88.40;;;;;;4996572;28;20018;-85
2022/12/14 12:06:39;;;;;;;50.78;31.50;;;3.00;88.40;;;;;;4979084;28;20039;-86
2022/12/14 12:09:23;;;;;;;47.95;30.30;;;3.00;88.30;;;;;;4979220;28;20434;-85
2022/12/14 12:11:49;;;;;;;50.47;28.63;;;3.00;88.20;;;;;;4997370;28;20022;-86
2022/12/14 12:14:33;;;;;;;50.05;30.20;;;3.00;88.20;;;;;;4980999;28;20076;-86
2022/12/14 12:16:59;;;;;;;51.13;31.17;;;3.00;88.30;;;;;;4980393;28;20129;-86
2022/12/14 12:19:30;;;;;;;50.05;31.45;;;3.00;88.40;;;;;;4986223;28;20081;-87
2022/12/14 12:21:59;;;;;;;55.03;33.75;;;2.90;88.70;;;;;;5016244;28;20069;-87
2022/12/14 12:24:31;;;;;;;55.60;34.30;;;2.80;88.80;;;;;;4998562;28;20032;-87
2022/12/14 12:27:02;;;;;;;56.42;33.83;;;2.70;89.10;;;;;;4998380;28;20033;-86
2022/12/14 12:29:46;;;;;;;49.55;30.83;;;2.70;89.10;;;;;;5014676;28;20026;-87
2022/12/14 12:32:13;;;;;;;55.85;31.58;;;2.70;89.40;;;;;;5016018;28;20109;-87
2022/12/14 12:34:48;;;;;;;64.60;36.08;;;2.70;89.70;;;;;;4997459;28;20080;-87
2022/12/14 12:37:18;;;;;;;58.58;31.75;;;2.60;89.90;;;;;;5015163;28;20028;-85
2022/12/14 12:39:47;;;;;;;57.45;30.48;;;2.60;90.00;;;;;;4996762;28;20034;-85
2022/12/14 12:42:25;;;;;;;51.75;28.58;;;2.50;90.50;;;;;;5013217;28;20112;-85
2022/12/14 12:44:59;;;;;;;47.80;27.42;;;2.50;90.40;;;;;;4996944;28;20084;-86
2022/12/14 12:47:38;;;;;;;48.05;27.30;;;2.50;90.30;;;;;;5014454;28;20030;-85
2022/12/14 12:50:13;;;;;;;44.50;26.58;;;2.50;90.30;;;;;;5014602;28;20022;-86
2022/12/14 12:52:59;;;;;;;44.00;26.30;;;2.50;90.20;;;;;;5013310;28;20045;-86
2022/12/14 12:55:27;;;;;;;45.90;26.98;;;2.60;90.20;;;;;;5014719;28;20072;-85
2022/12/14 12:57:56;;;;;;;40.90;25.27;;;2.60;90.30;;;;;;4996634;28;20026;-85
2022/12/14 13:00:27;;;;;;;45.85;26.55;;;2.60;90.20;;;;;;4996396;28;20026;-84
2022/12/14 13:03:23;;;;;;;48.38;28.02;;;2.60;90.00;;;;;;5014569;28;20029;-84
2022/12/14 13:05:53;;;;;;;43.80;26.92;;;2.60;90.00;;;;;;5014372;28;20090;-84
2022/12/14 13:08:27;;;;;;;49.10;28.35;;;2.60;90.00;;;;;;5014035;28;20478;-84
2022/12/14 13:10:55;;;;;;;46.50;28.33;;;2.60;89.90;;;;;;5014828;28;20141;-84
2022/12/14 13:13:26;;;;;;;49.35;29.10;;;2.60;89.80;;;;;;4996676;28;20029;-85